Time;durP1;ratioP1;P1;durP2;ratioP2;P2;SDS_P1;SDS_P2;PMS_P1;PMS_P2;Temp;Humidity;BMP_temperature;BMP_pressure;BME280_temperature;BME280_humidity;BME280_pressure;Samples;Min_cycle;Max_cycle;Signal;HPM_P1;HPM_P2
2023/03/04 00:00:08;;;;;;;33.40;16.27;;;5.90;43.80;;;;;;5012893;28;20433;-53
2023/03/04 00:02:34;;;;;;;34.55;17.65;;;5.90;43.80;;;;;;5013244;28;20166;-51
2023/03/04 00:05:00;;;;;;;33.20;16.20;;;6.00;43.70;;;;;;5012971;28;20639;-52
2023/03/04 00:07:25;;;;;;;31.60;16.60;;;6.00;43.80;;;;;;5012476;28;20174;-54
2023/03/04 00:09:51;;;;;;;35.33;17.40;;;6.00;43.60;;;;;;5012832;28;20187;-52
2023/03/04 00:12:17;;;;;;;32.30;16.43;;;6.00;43.50;;;;;;5013155;28;20643;-56
2023/03/04 00:14:42;;;;;;;30.90;16.47;;;6.00;43.50;;;;;;5012676;28;20175;-55
2023/03/04 00:17:08;;;;;;;29.93;16.07;;;6.00;43.50;;;;;;5013008;28;20270;-52
2023/03/04 00:19:34;;;;;;;36.00;16.63;;;6.10;43.50;;;;;;5012797;28;20686;-56
2023/03/04 00:22:01;;;;;;;30.95;15.10;;;6.10;43.20;;;;;;5013033;28;20182;-54
2023/03/04 00:24:26;;;;;;;32.42;15.60;;;6.10;43.30;;;;;;5012884;28;20178;-51
2023/03/04 00:26:52;;;;;;;30.50;17.27;;;6.10;43.30;;;;;;5012609;28;20682;-54
2023/03/04 00:29:18;;;;;;;26.20;14.73;;;6.10;43.30;;;;;;5012240;28;20198;-52
2023/03/04 00:31:43;;;;;;;20.97;12.73;;;6.20;43.20;;;;;;5012853;28;20175;-53
2023/03/04 00:34:09;;;;;;;24.00;14.07;;;6.20;43.20;;;;;;5012516;28;20175;-54
2023/03/04 00:36:35;;;;;;;34.97;17.80;;;6.20;43.10;;;;;;5012567;28;20297;-51
2023/03/04 00:39:00;;;;;;;26.63;14.50;;;6.20;43.20;;;;;;5012468;28;20198;-51
2023/03/04 00:41:26;;;;;;;30.57;16.27;;;6.10;43.20;;;;;;5012768;28;20174;-53
2023/03/04 00:43:52;;;;;;;28.17;15.60;;;6.20;43.20;;;;;;5012296;28;20313;-51
2023/03/04 00:46:18;;;;;;;26.70;14.27;;;6.20;43.30;;;;;;5012550;28;20182;-54
2023/03/04 00:48:43;;;;;;;28.07;15.40;;;6.10;43.60;;;;;;5012092;28;20558;-54
2023/03/04 00:51:09;;;;;;;24.30;14.10;;;6.10;43.60;;;;;;5012346;28;20207;-54
2023/03/04 00:53:35;;;;;;;29.03;15.87;;;6.10;43.60;;;;;;5012226;28;20535;-51
2023/03/04 00:56:00;;;;;;;26.63;16.90;;;6.20;43.50;;;;;;5012503;28;20205;-54
2023/03/04 00:58:26;;;;;;;24.23;15.90;;;6.20;43.30;;;;;;5011979;28;20253;-53
2023/03/04 01:00:52;;;;;;;27.47;15.37;;;6.20;43.50;;;;;;5012453;28;20201;-55
2023/03/04 01:03:17;;;;;;;29.17;15.30;;;6.10;43.60;;;;;;5012171;28;20570;-54
2023/03/04 01:05:43;;;;;;;23.07;13.43;;;6.10;43.60;;;;;;5012567;28;20261;-52
2023/03/04 01:08:09;;;;;;;27.23;15.87;;;6.10;43.40;;;;;;5012224;28;20678;-54
2023/03/04 01:10:35;;;;;;;27.60;15.00;;;6.20;43.40;;;;;;5012077;28;20270;-52
2023/03/04 01:13:00;;;;;;;28.77;16.07;;;6.10;43.50;;;;;;5012308;28;20183;-53
2023/03/04 01:15:26;;;;;;;31.70;14.60;;;6.20;43.50;;;;;;5012323;28;20213;-55
2023/03/04 01:17:52;;;;;;;29.33;14.57;;;6.10;43.50;;;;;;5011922;28;20233;-57
2023/03/04 01:20:18;;;;;;;28.27;15.13;;;6.10;43.40;;;;;;5013764;28;20194;-51
2023/03/04 01:22:43;;;;;;;23.53;14.13;;;6.20;43.50;;;;;;5016191;28;20581;-52
2023/03/04 01:25:09;;;;;;;23.73;13.50;;;6.10;43.40;;;;;;5016211;28;20888;-55
2023/03/04 01:27:35;;;;;;;20.13;12.73;;;6.10;43.50;;;;;;5015778;28;20666;-52
2023/03/04 01:30:01;;;;;;;27.03;13.77;;;6.00;43.70;;;;;;5015659;28;20771;-55
2023/03/04 01:32:26;;;;;;;31.83;15.97;;;6.00;43.80;;;;;;5015969;28;20202;-51
2023/03/04 01:34:52;;;;;;;29.10;14.33;;;6.00;44.50;;;;;;5015939;28;20244;-51
2023/03/04 01:37:18;;;;;;;25.73;14.80;;;6.00;43.80;;;;;;5015984;28;20227;-54
2023/03/04 01:39:44;;;;;;;27.63;15.80;;;6.00;43.60;;;;;;5015687;28;20210;-53
2023/03/04 01:42:21;;;;;;;21.50;13.60;;;6.10;43.60;;;;;;5015578;28;20667;-57
2023/03/04 01:44:48;;;;;;;22.92;15.45;;;6.10;43.60;;;;;;5015869;28;20505;-54
2023/03/04 01:47:14;;;;;;;21.42;13.70;;;6.10;43.40;;;;;;5015652;28;20321;-52
2023/03/04 01:49:40;;;;;;;25.65;15.65;;;6.10;43.30;;;;;;5015346;28;20199;-56
2023/03/04 01:52:11;;;;;;;20.37;13.70;;;6.20;43.20;;;;;;5015430;28;20202;-55
2023/03/04 01:54:37;;;;;;;24.60;14.00;;;6.10;43.40;;;;;;5015325;28;20417;-52
2023/03/04 01:57:15;;;;;;;23.43;13.40;;;6.00;43.40;;;;;;5015505;28;20207;-50
2023/03/04 01:59:41;;;;;;;21.50;13.75;;;5.90;43.90;;;;;;5015193;28;20425;-55
2023/03/04 02:02:07;;;;;;;22.17;12.43;;;5.90;43.90;;;;;;5015231;28;20223;-52
2023/03/04 02:04:33;;;;;;;25.52;14.23;;;5.80;43.90;;;;;;5015461;28;20409;-52
2023/03/04 02:07:01;;;;;;;20.92;14.07;;;5.90;44.10;;;;;;5015162;28;20671;-53
2023/03/04 02:09:28;;;;;;;23.20;12.95;;;5.80;44.10;;;;;;5015103;28;20241;-54
2023/03/04 02:11:54;;;;;;;22.83;13.38;;;5.80;44.30;;;;;;5015344;28;20194;-53
2023/03/04 02:14:21;;;;;;;25.20;13.10;;;5.90;44.10;;;;;;5015322;28;20194;-52
2023/03/04 02:16:47;;;;;;;22.40;11.52;;;6.00;43.60;;;;;;5014958;28;20217;-51
2023/03/04 02:19:28;;;;;;;21.50;13.20;;;5.90;43.70;;;;;;5014605;28;20582;-52
2023/03/04 02:21:53;;;;;;;21.55;13.38;;;6.00;43.60;;;;;;5014768;28;20232;-53
2023/03/04 02:24:31;;;;;;;18.07;12.57;;;5.90;43.70;;;;;;5014817;28;20527;-55
2023/03/04 02:26:57;;;;;;;22.33;12.30;;;5.80;43.90;;;;;;5014960;28;20534;-51
2023/03/04 02:29:23;;;;;;;17.67;12.35;;;5.90;44.00;;;;;;5014588;28;20206;-54
2023/03/04 02:31:51;;;;;;;20.43;11.50;;;5.90;43.90;;;;;;5014677;28;20171;-56
2023/03/04 02:34:23;;;;;;;20.50;13.73;;;5.90;43.70;;;;;;5014505;28;20183;-53
2023/03/04 02:36:51;;;;;;;17.75;11.95;;;6.00;43.50;;;;;;5014603;28;20567;-54
2023/03/04 02:39:20;;;;;;;20.13;12.93;;;6.10;43.40;;;;;;5014235;28;20220;-54
2023/03/04 02:41:51;;;;;;;23.02;13.15;;;6.00;43.30;;;;;;5014667;28;20599;-52
2023/03/04 02:44:24;;;;;;;19.88;13.15;;;6.10;43.30;;;;;;5014764;28;20535;-53
2023/03/04 02:46:50;;;;;;;19.05;13.35;;;6.10;43.20;;;;;;5014619;28;20166;-55
2023/03/04 02:49:17;;;;;;;21.33;12.75;;;6.10;43.10;;;;;;5014316;28;20289;-51
2023/03/04 02:51:43;;;;;;;18.92;13.60;;;6.10;43.40;;;;;;5014302;28;20202;-53
2023/03/04 02:54:20;;;;;;;20.50;13.38;;;6.10;43.30;;;;;;5014231;28;20166;-54
2023/03/04 02:56:48;;;;;;;22.20;11.95;;;6.00;43.30;;;;;;5014260;28;20206;-51
2023/03/04 02:59:15;;;;;;;19.10;13.32;;;6.40;43.40;;;;;;5013809;28;20195;-51
2023/03/04 03:01:41;;;;;;;17.27;13.15;;;6.10;43.40;;;;;;5014118;28;20182;-52
2023/03/04 03:04:07;;;;;;;18.67;13.60;;;5.90;43.70;;;;;;5014043;28;20186;-52
2023/03/04 03:06:32;;;;;;;18.20;12.90;;;5.90;43.80;;;;;;5014059;28;20207;-54
2023/03/04 03:08:58;;;;;;;19.20;12.70;;;5.60;44.60;;;;;;5013857;28;20410;-51
2023/03/04 03:11:24;;;;;;;18.53;11.90;;;5.70;44.50;;;;;;5014220;28;20174;-51
2023/03/04 03:13:49;;;;;;;21.73;13.63;;;5.70;44.50;;;;;;5013844;28;20504;-56
2023/03/04 03:16:15;;;;;;;18.80;12.97;;;5.60;44.60;;;;;;5014120;28;20647;-51
2023/03/04 03:18:41;;;;;;;17.70;12.93;;;5.70;44.30;;;;;;5013512;28;20202;-56
2023/03/04 03:21:07;;;;;;;17.63;12.90;;;5.70;44.50;;;;;;5013764;28;20179;-55
2023/03/04 03:23:33;;;;;;;23.47;15.30;;;5.70;44.40;;;;;;5014009;28;20179;-52
2023/03/04 03:25:59;;;;;;;19.35;12.60;;;5.80;44.10;;;;;;5013708;28;20510;-54
2023/03/04 03:28:25;;;;;;;23.05;12.93;;;5.90;44.10;;;;;;5013397;28;20550;-51
2023/03/04 03:30:51;;;;;;;26.03;12.77;;;5.90;44.00;;;;;;5013851;28;20222;-53
2023/03/04 03:33:16;;;;;;;24.93;12.67;;;5.90;43.80;;;;;;5013809;28;20179;-54
2023/03/04 03:35:42;;;;;;;23.63;13.83;;;6.00;43.60;;;;;;5013611;28;20571;-53
2023/03/04 03:38:08;;;;;;;20.97;14.70;;;6.00;43.60;;;;;;5013540;28;20550;-52
2023/03/04 03:40:33;;;;;;;20.27;13.00;;;6.00;43.60;;;;;;5013500;28;20199;-57
2023/03/04 03:42:59;;;;;;;17.43;12.10;;;6.00;43.50;;;;;;5012620;28;20536;-55
2023/03/04 03:45:25;;;;;;;18.57;12.00;;;6.00;43.60;;;;;;5013331;28;20679;-53
2023/03/04 03:47:51;;;;;;;26.17;13.80;;;6.00;43.60;;;;;;5013223;28;20185;-55
2023/03/04 03:50:16;;;;;;;19.10;12.60;;;6.10;43.50;;;;;;5011830;28;20667;-54
2023/03/04 03:52:42;;;;;;;25.00;14.63;;;6.20;43.20;;;;;;5013451;28;20265;-52
2023/03/04 03:55:08;;;;;;;19.03;12.27;;;6.20;43.10;;;;;;5013143;28;20436;-52
2023/03/04 03:57:34;;;;;;;21.73;12.88;;;6.20;43.00;;;;;;5012979;28;20181;-53
2023/03/04 04:00:00;;;;;;;21.73;13.57;;;6.10;44.10;;;;;;5012885;28;20190;-52
2023/03/04 04:02:25;;;;;;;23.27;12.97;;;6.00;43.50;;;;;;5012998;28;20191;-52
2023/03/04 04:04:51;;;;;;;22.90;12.83;;;6.00;43.60;;;;;;5013053;28;20174;-56
2023/03/04 04:07:17;;;;;;;16.90;11.83;;;6.00;43.70;;;;;;5013219;28;20174;-54
2023/03/04 04:09:43;;;;;;;26.15;13.02;;;6.00;43.60;;;;;;5012657;28;20620;-52
2023/03/04 04:12:13;;;;;;;24.13;15.07;;;6.10;43.50;;;;;;5012896;28;20206;-54
2023/03/04 04:14:39;;;;;;;16.73;11.60;;;6.10;43.40;;;;;;5013038;28;20179;-54
2023/03/04 04:17:05;;;;;;;17.30;11.20;;;6.10;43.60;;;;;;5012773;28;20200;-52
2023/03/04 04:19:30;;;;;;;19.13;12.27;;;6.00;43.50;;;;;;5012505;28;20423;-54
2023/03/04 04:21:56;;;;;;;22.43;12.20;;;6.00;43.30;;;;;;5012795;28;20170;-55
2023/03/04 04:24:22;;;;;;;14.60;10.53;;;6.00;43.40;;;;;;5012700;28;20175;-51
2023/03/04 04:26:47;;;;;;;16.63;11.13;;;6.10;43.30;;;;;;5012639;28;20177;-53
2023/03/04 04:29:14;;;;;;;18.67;12.30;;;6.10;43.20;;;;;;5012401;28;20194;-53
2023/03/04 04:31:40;;;;;;;25.60;12.90;;;6.20;43.00;;;;;;5012539;28;20174;-56
2023/03/04 04:34:05;;;;;;;16.30;11.13;;;6.20;42.90;;;;;;5012826;28;20178;-53
2023/03/04 04:36:31;;;;;;;19.23;11.60;;;6.10;43.10;;;;;;5012456;28;20980;-57
2023/03/04 04:38:57;;;;;;;18.57;11.93;;;6.20;42.90;;;;;;5012496;28;20175;-53
2023/03/04 04:41:27;;;;;;;21.73;12.83;;;6.20;42.80;;;;;;5012362;28;20413;-52
2023/03/04 04:43:53;;;;;;;20.48;12.75;;;6.20;42.90;;;;;;5012359;28;20595;-56
2023/03/04 04:46:19;;;;;;;17.15;9.27;;;6.20;42.80;;;;;;5012338;28;20213;-54
2023/03/04 04:48:45;;;;;;;17.73;10.33;;;6.10;43.00;;;;;;5012072;28;20221;-53
2023/03/04 04:51:11;;;;;;;20.15;13.00;;;6.20;42.80;;;;;;5012314;28;20198;-56
2023/03/04 04:53:37;;;;;;;18.77;12.55;;;6.20;42.80;;;;;;5012243;28;20209;-53
2023/03/04 04:56:11;;;;;;;21.97;12.53;;;6.30;42.80;;;;;;5012217;28;20678;-53
2023/03/04 04:58:38;;;;;;;20.23;12.43;;;6.30;42.60;;;;;;5012016;28;20249;-52
2023/03/04 05:01:04;;;;;;;16.58;11.65;;;6.40;42.30;;;;;;5012407;28;20290;-54
2023/03/04 05:03:30;;;;;;;24.10;13.18;;;6.40;42.20;;;;;;5012480;28;20253;-52
2023/03/04 05:05:56;;;;;;;20.58;11.00;;;6.40;42.30;;;;;;5012253;28;20240;-52
2023/03/04 05:08:22;;;;;;;16.55;11.52;;;6.30;42.50;;;;;;5011949;28;20186;-55
2023/03/04 05:10:48;;;;;;;17.47;10.70;;;6.30;42.50;;;;;;5012090;28;20202;-51
2023/03/04 05:13:13;;;;;;;18.40;11.20;;;6.30;43.20;;;;;;5012075;28;20233;-51
2023/03/04 05:15:39;;;;;;;22.33;10.77;;;6.30;42.50;;;;;;5012202;28;20245;-55
2023/03/04 05:18:05;;;;;;;16.57;11.33;;;6.40;42.30;;;;;;5012242;28;20229;-53
2023/03/04 05:20:31;;;;;;;15.25;10.52;;;6.40;42.30;;;;;;5012284;28;20559;-52
2023/03/04 05:22:57;;;;;;;17.60;11.30;;;6.40;42.10;;;;;;5011982;28;20179;-54
2023/03/04 05:25:22;;;;;;;19.07;10.90;;;6.40;42.20;;;;;;5012208;28;20182;-54
2023/03/04 05:27:48;;;;;;;20.20;12.87;;;6.40;42.30;;;;;;5012153;28;20663;-52
2023/03/04 05:30:14;;;;;;;16.67;11.47;;;6.40;42.30;;;;;;5011883;28;20668;-56
2023/03/04 05:32:40;;;;;;;18.93;11.23;;;6.30;42.40;;;;;;5012064;28;20182;-54
2023/03/04 05:35:06;;;;;;;27.53;12.50;;;6.30;42.50;;;;;;5011862;28;20512;-52
2023/03/04 05:37:32;;;;;;;19.95;13.23;;;6.30;42.60;;;;;;5011850;28;20175;-57
2023/03/04 05:39:57;;;;;;;15.87;10.93;;;6.20;42.80;;;;;;5011980;28;20199;-53
2023/03/04 05:42:23;;;;;;;15.37;10.53;;;6.30;42.70;;;;;;5011868;28;20679;-51
2023/03/04 05:44:49;;;;;;;17.17;10.73;;;6.20;42.90;;;;;;5011950;28;20244;-55
2023/03/04 05:47:14;;;;;;;14.47;9.47;;;6.40;42.50;;;;;;5011813;28;20524;-51
2023/03/04 05:49:40;;;;;;;14.63;9.80;;;6.40;42.40;;;;;;5011489;28;20198;-53
2023/03/04 05:52:06;;;;;;;16.83;11.50;;;6.50;42.40;;;;;;5011592;28;20187;-54
2023/03/04 05:54:32;;;;;;;18.20;10.90;;;6.50;42.30;;;;;;5011733;28;20415;-54
2023/03/04 05:56:57;;;;;;;16.37;10.87;;;6.60;42.00;;;;;;5011946;28;20445;-53
2023/03/04 05:59:23;;;;;;;16.10;10.10;;;6.60;41.90;;;;;;5011692;28;20186;-52
2023/03/04 06:01:49;;;;;;;18.30;10.67;;;6.60;42.10;;;;;;5011689;28;20167;-56
2023/03/04 06:04:16;;;;;;;23.67;12.13;;;6.70;42.10;;;;;;5011706;28;20402;-53
2023/03/04 06:06:42;;;;;;;21.70;10.70;;;6.80;42.00;;;;;;5013652;28;20179;-51
2023/03/04 06:09:07;;;;;;;16.83;10.50;;;6.80;41.80;;;;;;5014828;28;20206;-52
2023/03/04 06:11:33;;;;;;;20.67;11.80;;;6.90;41.80;;;;;;5015322;28;20413;-52
2023/03/04 06:13:59;;;;;;;15.90;10.87;;;6.90;41.70;;;;;;5015336;28;20205;-54
2023/03/04 06:16:24;;;;;;;17.23;11.70;;;7.00;41.40;;;;;;5014869;28;20694;-55
2023/03/04 06:18:50;;;;;;;16.17;10.07;;;7.00;41.40;;;;;;5014788;28;20414;-53
2023/03/04 06:21:16;;;;;;;26.20;11.50;;;7.00;41.50;;;;;;5014896;28;20179;-53
2023/03/04 06:23:43;;;;;;;15.97;11.27;;;7.00;41.60;;;;;;5015134;28;20183;-52
2023/03/04 06:26:11;;;;;;;16.55;9.60;;;7.00;41.70;;;;;;5015066;28;20181;-52
2023/03/04 06:28:36;;;;;;;18.77;11.68;;;6.90;41.90;;;;;;5014528;28;20650;-53
2023/03/04 06:31:02;;;;;;;14.43;10.03;;;6.80;42.10;;;;;;5014650;28;20293;-56
2023/03/04 06:33:28;;;;;;;18.57;11.27;;;6.90;42.20;;;;;;5014696;28;20217;-52
2023/03/04 06:35:55;;;;;;;19.60;11.07;;;6.90;42.10;;;;;;5014562;28;20460;-54
2023/03/04 06:38:21;;;;;;;17.60;11.10;;;7.00;42.10;;;;;;5014442;28;20173;-55
2023/03/04 06:40:47;;;;;;;16.47;11.90;;;6.90;42.10;;;;;;5014724;28;20202;-52
2023/03/04 06:43:12;;;;;;;18.40;10.43;;;7.00;42.00;;;;;;5014552;28;20960;-54
2023/03/04 06:45:38;;;;;;;19.27;11.20;;;7.00;42.00;;;;;;5014750;28;20179;-57
2023/03/04 06:48:04;;;;;;;17.97;10.97;;;6.90;42.20;;;;;;5014301;28;20651;-51
2023/03/04 06:50:30;;;;;;;19.90;10.02;;;7.00;42.10;;;;;;5012937;28;20441;-57
2023/03/04 06:52:56;;;;;;;22.83;11.67;;;7.00;42.10;;;;;;5014364;28;20643;-57
2023/03/04 06:55:22;;;;;;;22.92;12.55;;;7.00;42.00;;;;;;5014187;28;20715;-51
2023/03/04 06:57:48;;;;;;;21.23;9.90;;;7.00;42.10;;;;;;5014013;28;20175;-57
2023/03/04 07:00:15;;;;;;;19.30;12.10;;;7.00;42.40;;;;;;5014034;28;20217;-57
2023/03/04 07:02:40;;;;;;;22.02;9.65;;;6.90;42.50;;;;;;5014147;28;20198;-53
2023/03/04 07:05:08;;;;;;;16.03;10.67;;;7.00;42.60;;;;;;5014083;28;20205;-55
2023/03/04 07:07:34;;;;;;;18.35;9.70;;;7.00;42.60;;;;;;5014272;28;20174;-53
2023/03/04 07:09:59;;;;;;;17.57;10.43;;;7.00;42.90;;;;;;5013720;28;20202;-52
2023/03/04 07:12:25;;;;;;;17.80;11.63;;;7.00;43.60;;;;;;5014053;28;20170;-55
2023/03/04 07:14:51;;;;;;;24.10;10.37;;;7.00;42.80;;;;;;5013842;28;20167;-55
2023/03/04 07:17:17;;;;;;;20.80;10.63;;;7.00;43.10;;;;;;5013021;28;20453;-53
2023/03/04 07:19:43;;;;;;;16.53;9.97;;;7.00;43.10;;;;;;5013526;28;20195;-55
2023/03/04 07:22:09;;;;;;;21.85;11.98;;;7.00;43.20;;;;;;5013735;28;20636;-56
2023/03/04 07:24:35;;;;;;;16.70;10.60;;;7.10;43.20;;;;;;5014004;28;20179;-53
2023/03/04 07:27:01;;;;;;;20.53;10.53;;;7.20;43.00;;;;;;5013702;28;20418;-53
2023/03/04 07:29:26;;;;;;;25.20;11.10;;;7.20;42.90;;;;;;5013357;28;20190;-56
2023/03/04 07:31:52;;;;;;;15.67;10.10;;;7.20;43.00;;;;;;5013613;28;20504;-53
2023/03/04 07:34:18;;;;;;;18.03;10.63;;;7.30;43.00;;;;;;5013376;28;20489;-55
2023/03/04 07:36:44;;;;;;;18.07;10.00;;;7.30;42.90;;;;;;5013702;28;20449;-52
2023/03/04 07:39:14;;;;;;;20.77;10.80;;;7.40;42.90;;;;;;5013203;28;20281;-58
2023/03/04 07:41:40;;;;;;;20.63;11.25;;;7.40;42.90;;;;;;5013391;28;20744;-53
2023/03/04 07:44:07;;;;;;;18.48;10.90;;;7.40;43.00;;;;;;5013315;28;20709;-53
2023/03/04 07:46:34;;;;;;;19.15;10.93;;;7.40;43.10;;;;;;5013335;28;20237;-53
2023/03/04 07:49:00;;;;;;;17.40;10.23;;;7.40;43.00;;;;;;5012897;28;20193;-52
2023/03/04 07:51:27;;;;;;;21.13;9.93;;;7.40;43.30;;;;;;5013284;28;20194;-50
2023/03/04 07:53:58;;;;;;;19.38;10.95;;;7.50;43.20;;;;;;5013315;28;20175;-57
2023/03/04 07:56:27;;;;;;;17.73;10.63;;;7.50;43.20;;;;;;5013196;28;20198;-52
2023/03/04 07:58:53;;;;;;;15.90;10.50;;;7.50;43.20;;;;;;5013053;28;20181;-51
2023/03/04 08:01:22;;;;;;;19.45;8.95;;;7.50;43.20;;;;;;5012939;28;20650;-57
2023/03/04 08:03:48;;;;;;;15.05;10.40;;;7.50;43.30;;;;;;5013084;28;20175;-55
2023/03/04 08:06:15;;;;;;;15.67;10.47;;;7.50;43.50;;;;;;5013051;28;20182;-52
2023/03/04 08:08:41;;;;;;;23.23;10.75;;;7.50;43.30;;;;;;5012791;28;20908;-53
2023/03/04 08:11:12;;;;;;;18.58;10.07;;;7.50;43.70;;;;;;5013138;28;20198;-55
2023/03/04 08:13:37;;;;;;;16.38;9.68;;;7.60;43.40;;;;;;5013155;28;20166;-52
2023/03/04 08:16:04;;;;;;;18.50;9.67;;;7.60;43.30;;;;;;5012866;28;20697;-57
2023/03/04 08:18:30;;;;;;;21.83;11.13;;;7.70;43.30;;;;;;5012560;28;20171;-57
2023/03/04 08:20:55;;;;;;;16.23;9.83;;;7.80;43.10;;;;;;5012962;28;20244;-51
2023/03/04 08:23:21;;;;;;;20.90;10.00;;;7.90;43.20;;;;;;5012717;28;20402;-54
2023/03/04 08:25:47;;;;;;;25.10;8.10;;;8.00;43.00;;;;;;5012904;28;20170;-54
2023/03/04 08:28:15;;;;;;;11.43;8.02;;;8.00;42.70;;;;;;5012056;28;20245;-55
2023/03/04 08:30:43;;;;;;;14.75;9.20;;;8.00;42.70;;;;;;5012454;28;20643;-53
2023/03/04 08:33:09;;;;;;;24.35;10.48;;;7.90;42.70;;;;;;5012554;28;20647;-53
2023/03/04 08:35:38;;;;;;;21.97;9.17;;;7.90;42.80;;;;;;5012544;28;20241;-52
2023/03/04 08:38:04;;;;;;;14.32;9.32;;;8.00;43.00;;;;;;5012513;28;20410;-54
2023/03/04 08:40:30;;;;;;;17.10;9.13;;;8.00;43.10;;;;;;5012456;28;20198;-56
2023/03/04 08:42:55;;;;;;;17.33;9.37;;;8.10;43.00;;;;;;5012296;28;20181;-51
2023/03/04 08:45:21;;;;;;;11.30;7.93;;;8.10;42.90;;;;;;5012350;28;20410;-53
2023/03/04 08:47:47;;;;;;;20.63;10.60;;;8.20;42.80;;;;;;5012140;28;20175;-55
2023/03/04 08:50:13;;;;;;;11.53;8.67;;;8.20;42.80;;;;;;5012564;28;20273;-51
2023/03/04 08:52:38;;;;;;;15.83;9.57;;;8.20;42.90;;;;;;5012233;28;20190;-52
2023/03/04 08:55:05;;;;;;;17.33;9.80;;;8.20;43.00;;;;;;5012258;28;20179;-58
2023/03/04 08:57:30;;;;;;;14.90;9.10;;;8.20;43.00;;;;;;5012123;28;20645;-52
2023/03/04 08:59:56;;;;;;;13.93;9.77;;;8.20;43.00;;;;;;5012242;28;20204;-52
2023/03/04 09:02:22;;;;;;;13.83;8.90;;;8.20;43.20;;;;;;5012395;28;20190;-56
2023/03/04 09:04:47;;;;;;;15.60;8.80;;;8.20;43.20;;;;;;5012196;28;20175;-52
2023/03/04 09:07:13;;;;;;;14.53;9.97;;;8.20;43.30;;;;;;5012327;28;20255;-53
2023/03/04 09:09:39;;;;;;;19.33;8.97;;;8.20;43.40;;;;;;5011920;28;20222;-56
2023/03/04 09:12:05;;;;;;;14.52;8.32;;;8.10;43.50;;;;;;5012261;28;20166;-51
2023/03/04 09:14:34;;;;;;;17.48;9.35;;;8.00;44.00;;;;;;5012097;28;20186;-53
2023/03/04 09:17:03;;;;;;;24.85;9.80;;;8.00;44.00;;;;;;5012007;28;20201;-56
2023/03/04 09:19:29;;;;;;;15.73;9.13;;;8.10;44.10;;;;;;5011708;28;20226;-53
2023/03/04 09:21:55;;;;;;;20.40;10.03;;;8.20;44.10;;;;;;5012037;28;20198;-57
2023/03/04 09:24:21;;;;;;;15.63;8.60;;;8.10;43.90;;;;;;5012056;28;20473;-55
2023/03/04 09:26:51;;;;;;;17.52;7.82;;;8.10;44.20;;;;;;5011861;28;20178;-53
2023/03/04 09:29:17;;;;;;;11.75;9.02;;;8.10;44.30;;;;;;5011623;28;20205;-55
2023/03/04 09:31:43;;;;;;;16.90;10.85;;;8.20;44.20;;;;;;5012105;28;20521;-52
2023/03/04 09:34:08;;;;;;;13.03;7.27;;;8.20;44.00;;;;;;5011919;28;20179;-54
2023/03/04 09:36:34;;;;;;;13.93;8.00;;;8.30;44.10;;;;;;5011809;28;20297;-54
2023/03/04 09:39:01;;;;;;;12.27;7.80;;;8.30;44.10;;;;;;5011864;28;20183;-53
2023/03/04 09:41:38;;;;;;;21.90;8.57;;;8.30;44.20;;;;;;5013527;28;20254;-52
2023/03/04 09:44:32;;;;;;;10.98;8.07;;;8.40;44.10;;;;;;5015642;28;20588;-55
2023/03/04 09:47:02;;;;;;;16.23;8.25;;;8.40;44.00;;;;;;5015263;28;20528;-54
2023/03/04 09:49:28;;;;;;;12.60;8.13;;;8.40;44.10;;;;;;5015235;28;20222;-52
2023/03/04 09:52:00;;;;;;;11.32;7.47;;;8.30;44.20;;;;;;5015285;28;20328;-57
2023/03/04 09:55:03;;;;;;;15.02;8.32;;;8.30;44.40;;;;;;5015589;28;20609;-53
2023/03/04 09:57:37;;;;;;;9.75;8.05;;;8.20;44.50;;;;;;5015437;28;20213;-52
2023/03/04 10:00:44;;;;;;;10.70;7.20;;;8.10;44.90;;;;;;5015126;28;20218;-53
2023/03/04 10:03:13;;;;;;;16.33;7.50;;;8.10;45.00;;;;;;5007500;28;20650;-57
2023/03/04 10:05:43;;;;;;;16.15;8.48;;;8.10;45.30;;;;;;5015174;28;20191;-53
2023/03/04 10:08:50;;;;;;;11.93;7.90;;;8.10;45.40;;;;;;5015144;28;20205;-56
2023/03/04 10:11:25;;;;;;;15.65;6.68;;;8.00;45.40;;;;;;4993067;28;20547;-52
2023/03/04 10:14:11;;;;;;;13.35;8.18;;;8.00;45.60;;;;;;4993138;28;20232;-54
2023/03/04 10:16:46;;;;;;;14.85;7.47;;;8.00;46.00;;;;;;4993061;28;20191;-55
2023/03/04 10:19:22;;;;;;;12.52;7.82;;;8.00;45.90;;;;;;4992788;28;20677;-54
2023/03/04 10:21:50;;;;;;;11.68;7.80;;;8.00;46.10;;;;;;4993125;28;20186;-52
2023/03/04 10:24:21;;;;;;;15.75;8.23;;;8.00;46.10;;;;;;4992982;28;20748;-57
2023/03/04 10:27:00;;;;;;;8.52;7.35;;;8.10;46.00;;;;;;4992932;28;20179;-52
2023/03/04 10:29:28;;;;;;;11.88;6.78;;;8.10;46.10;;;;;;4992592;28;20198;-53
2023/03/04 10:31:54;;;;;;;11.15;7.32;;;8.10;46.30;;;;;;4992856;28;20644;-55
2023/03/04 10:34:20;;;;;;;14.60;7.35;;;8.20;46.10;;;;;;4992705;28;20573;-52
2023/03/04 10:36:57;;;;;;;7.85;6.78;;;8.30;45.90;;;;;;4992747;28;20201;-55
2023/03/04 10:39:39;;;;;;;11.02;7.60;;;8.50;45.70;;;;;;4992304;28;20202;-53
2023/03/04 10:42:06;;;;;;;12.77;5.40;;;8.60;45.20;;;;;;4992531;28;20172;-56
2023/03/04 10:44:34;;;;;;;8.65;6.88;;;8.60;45.10;;;;;;4997876;28;20183;-56
2023/03/04 10:47:00;;;;;;;7.88;5.75;;;8.50;45.40;;;;;;5014614;28;20183;-52
2023/03/04 10:49:27;;;;;;;9.00;6.05;;;8.50;45.70;;;;;;5014236;28;20278;-55
2023/03/04 10:52:02;;;;;;;10.40;6.63;;;8.50;45.80;;;;;;5014046;28;20196;-55
2023/03/04 10:54:35;;;;;;;10.85;6.43;;;8.60;45.30;;;;;;5014304;28;20205;-52
2023/03/04 10:57:19;;;;;;;10.68;6.57;;;8.60;45.30;;;;;;5014432;28;20212;-56
2023/03/04 11:00:01;;;;;;;10.05;6.45;;;8.70;45.10;;;;;;5014287;28;20256;-52
2023/03/04 11:02:30;;;;;;;10.70;6.85;;;8.80;44.80;;;;;;5014135;28;20235;-55
2023/03/04 11:05:06;;;;;;;10.73;5.88;;;8.90;44.90;;;;;;5014039;28;20643;-53
2023/03/04 11:07:40;;;;;;;9.38;6.03;;;8.80;45.10;;;;;;5014023;28;20531;-51
2023/03/04 11:10:22;;;;;;;14.07;5.97;;;8.80;45.10;;;;;;5013971;28;20617;-55
2023/03/04 11:13:19;;;;;;;9.55;4.47;;;8.70;45.30;;;;;;5013909;28;20180;-52
2023/03/04 11:15:54;;;;;;;9.07;5.38;;;8.60;45.50;;;;;;5008823;28;20264;-53
2023/03/04 11:18:50;;;;;;;13.68;6.20;;;8.70;45.40;;;;;;5013638;28;20652;-52
2023/03/04 11:21:24;;;;;;;11.40;5.97;;;8.50;46.10;;;;;;5014058;28;20168;-55
2023/03/04 11:24:25;;;;;;;13.85;5.35;;;8.50;46.10;;;;;;5014072;28;20170;-51
2023/03/04 11:27:23;;;;;;;8.82;5.32;;;8.70;46.30;;;;;;5006549;28;20178;-55
2023/03/04 11:30:01;;;;;;;18.33;5.82;;;8.80;46.00;;;;;;5013026;28;20248;-52
2023/03/04 11:32:30;;;;;;;10.25;5.00;;;9.00;45.60;;;;;;5013892;28;20166;-56
2023/03/04 11:35:17;;;;;;;8.32;4.70;;;9.10;45.40;;;;;;5013827;28;20188;-54
2023/03/04 11:38:13;;;;;;;13.68;6.43;;;9.20;45.00;;;;;;5013314;28;20189;-55
2023/03/04 11:40:50;;;;;;;9.10;5.43;;;9.10;44.90;;;;;;5013418;28;20690;-53
2023/03/04 11:43:24;;;;;;;8.40;5.53;;;9.10;44.40;;;;;;5013469;28;20177;-57
2023/03/04 11:46:10;;;;;;;10.63;6.93;;;8.80;45.20;;;;;;5013669;28;20169;-54
2023/03/04 11:49:00;;;;;;;9.38;4.88;;;8.90;45.10;;;;;;5013389;28;20187;-56
2023/03/04 11:51:51;;;;;;;11.23;5.13;;;8.90;45.20;;;;;;5013168;28;20194;-54
2023/03/04 11:54:31;;;;;;;11.57;4.82;;;9.00;44.70;;;;;;5013487;28;20182;-51
2023/03/04 11:57:04;;;;;;;5.68;5.07;;;9.00;44.30;;;;;;5013096;28;20229;-57
2023/03/04 12:00:19;;;;;;;6.10;3.67;;;9.10;44.30;;;;;;5013105;28;20241;-53
2023/03/04 12:02:59;;;;;;;7.18;4.95;;;9.10;44.30;;;;;;5013370;28;20170;-55
2023/03/04 12:05:29;;;;;;;5.40;4.20;;;9.20;44.30;;;;;;5012707;28;20178;-57
2023/03/04 12:08:16;;;;;;;8.43;5.40;;;9.30;44.30;;;;;;5012871;28;20174;-56
2023/03/04 12:10:54;;;;;;;20.45;9.55;;;9.40;44.10;;;;;;5013237;28;20219;-51
2023/03/04 12:13:52;;;;;;;12.77;5.57;;;9.50;44.00;;;;;;5012795;28;20175;-56
2023/03/04 12:16:32;;;;;;;8.52;5.10;;;9.60;43.70;;;;;;5012648;28;20203;-51
2023/03/04 12:19:20;;;;;;;10.80;4.75;;;9.60;43.60;;;;;;5012864;28;20186;-53
2023/03/04 12:22:27;;;;;;;7.57;5.55;;;9.60;43.30;;;;;;5012627;28;20175;-56
2023/03/04 12:25:14;;;;;;;9.18;5.40;;;9.40;42.60;;;;;;4990727;28;20757;-58
2023/03/04 12:27:58;;;;;;;6.82;4.00;;;9.10;43.90;;;;;;4990699;28;20265;-50
2023/03/04 12:31:01;;;;;;;7.70;5.05;;;9.30;43.70;;;;;;4990581;28;20198;-52
2023/03/04 12:34:04;;;;;;;7.80;4.80;;;9.40;43.60;;;;;;4990714;28;20215;-52
2023/03/04 12:36:38;;;;;;;8.20;5.20;;;9.60;42.80;;;;;;4990365;28;20214;-51
2023/03/04 12:39:23;;;;;;;12.85;5.03;;;9.40;42.80;;;;;;4990235;28;20193;-52
2023/03/04 12:42:15;;;;;;;8.23;4.85;;;9.40;43.20;;;;;;4990596;28;20171;-56
2023/03/04 12:45:19;;;;;;;9.40;4.45;;;9.50;43.10;;;;;;4981330;28;20212;-51
2023/03/04 12:48:29;;;;;;;9.32;4.55;;;9.60;42.80;;;;;;4984451;28;20182;-56
2023/03/04 12:51:05;;;;;;;8.32;4.10;;;9.70;42.50;;;;;;4988217;28;20225;-52
2023/03/04 12:54:03;;;;;;;6.22;4.45;;;9.80;42.10;;;;;;4990485;28;20188;-53